地図

経路データ

SID SEASON NUMBER BASIN SUBBASIN NAME ISO_TIME NATURE LAT LON WMO_WIND WMO_PRES WMO_AGENCY TRACK_TYPE DIST2LAND LANDFALL IFLAG USA_AGENCY USA_ATCF_ID USA_LAT USA_LON USA_RECORD USA_STATUS USA_WIND USA_PRES USA_SSHS USA_R34_NE USA_R34_SE USA_R34_SW USA_R34_NW USA_R50_NE USA_R50_SE USA_R50_SW USA_R50_NW USA_R64_NE USA_R64_SE USA_R64_SW USA_R64_NW USA_POCI USA_ROCI USA_RMW USA_EYE TOKYO_LAT TOKYO_LON TOKYO_GRADE TOKYO_WIND TOKYO_PRES TOKYO_R50_DIR TOKYO_R50_LONG TOKYO_R50_SHORT TOKYO_R30_DIR TOKYO_R30_LONG TOKYO_R30_SHORT TOKYO_LAND CMA_LAT CMA_LON CMA_CAT CMA_WIND CMA_PRES HKO_LAT HKO_LON HKO_CAT HKO_WIND HKO_PRES NEWDELHI_LAT NEWDELHI_LON NEWDELHI_GRADE NEWDELHI_WIND NEWDELHI_PRES NEWDELHI_CI NEWDELHI_DP NEWDELHI_POCI REUNION_LAT REUNION_LON REUNION_TYPE REUNION_WIND REUNION_PRES REUNION_TNUM REUNION_CI REUNION_RMW REUNION_R34_NE REUNION_R34_SE REUNION_R34_SW REUNION_R34_NW REUNION_R50_NE REUNION_R50_SE REUNION_R50_SW REUNION_R50_NW REUNION_R64_NE REUNION_R64_SE REUNION_R64_SW REUNION_R64_NW BOM_LAT BOM_LON BOM_TYPE BOM_WIND BOM_PRES BOM_TNUM BOM_CI BOM_RMW BOM_R34_NE BOM_R34_SE BOM_R34_SW BOM_R34_NW BOM_R50_NE BOM_R50_SE BOM_R50_SW BOM_R50_NW BOM_R64_NE BOM_R64_SE BOM_R64_SW BOM_R64_NW BOM_ROCI BOM_POCI BOM_EYE BOM_POS_METHOD BOM_PRES_METHOD NADI_LAT NADI_LON NADI_CAT NADI_WIND NADI_PRES WELLINGTON_LAT WELLINGTON_LON WELLINGTON_WIND WELLINGTON_PRES DS824_LAT DS824_LON DS824_STAGE DS824_WIND DS824_PRES TD9636_LAT TD9636_LON TD9636_STAGE TD9636_WIND TD9636_PRES TD9635_LAT TD9635_LON TD9635_WIND TD9635_PRES TD9635_ROCI NEUMANN_LAT NEUMANN_LON NEUMANN_CLASS NEUMANN_WIND NEUMANN_PRES MLC_LAT MLC_LON MLC_CLASS MLC_WIND MLC_PRES USA_GUST BOM_GUST BOM_GUST_PER REUNION_GUST REUNION_GUST_PER USA_SEAHGT USA_SEARAD_NE USA_SEARAD_SE USA_SEARAD_SW USA_SEARAD_NW STORM_SPEED STORM_DIR
1921361N05086 1921 73 NI BB NOT_NAMED 1921-12-27 00:00:00 TS 4.80000 85.6000 main 472 447 _________O____ -1 4.80000 85.6000 TC 30 5 284
1921361N05086 1921 73 NI BB NOT_NAMED 1921-12-27 03:00:00 TS 4.86503 85.3333 main 437 402 _________PO___ -1 4.89755 85.2000 TC 30 4.80000 85.6000 1 7 284
1921361N05086 1921 73 NI BB NOT_NAMED 1921-12-27 06:00:00 TS 4.96445 84.9613 main 402 357 _________OP___ -1 5.00000 84.8000 TC 30 4.91112 85.2032 1 8 285
1921361N05086 1921 73 NI BB NOT_NAMED 1921-12-27 09:00:00 TS 5.06900 84.5736 main 357 312 _________PP___ -1 5.10748 84.4000 TC 30 5.01770 84.8051 1 8 284
1921361N05086 1921 73 NI BB NOT_NAMED 1921-12-27 12:00:00 TS 5.15772 84.2022 main 312 274 _________OP___ -1 5.20000 84.0000 TC 30 5.11543 84.4044 1 8 282
1921361N05086 1921 73 NI BB NOT_NAMED 1921-12-27 15:00:00 TS 5.22873 83.8037 main 274 231 _________PO___ -1 5.25746 83.6075 TC 30 5.20000 84.0000 1 8 279
1921361N05086 1921 73 NI BB NOT_NAMED 1921-12-27 18:00:00 TS 5.28417 83.3951 main 231 196 _________OP___ -1 5.30000 83.2000 TC 30 5.26833 83.5903 1 8 277
1921361N05086 1921 73 NI BB NOT_NAMED 1921-12-27 21:00:00 TS 5.33617 82.9650 main 196 151 _________PP___ -1 5.34998 82.7575 TC 30 5.32235 83.1724 1 9 276
1921361N05086 1921 73 NI BB NOT_NAMED 1921-12-28 00:00:00 TS 5.38260 82.5217 main 151 126 _________OP___ -1 5.40000 82.3000 TC 30 5.36519 82.7434 1 9 276
1921361N05086 1921 73 NI BB NOT_NAMED 1921-12-28 03:00:00 TS 5.42872 82.0788 main 126 85 _________PO___ -1 5.45745 81.8575 TC 30 5.40000 82.3000 1 9 275
1921361N05086 1921 73 NI BB NOT_NAMED 1921-12-28 06:00:00 TS 5.46605 81.6217 main 85 70 _________OP___ -1 5.50000 81.4000 TC 30 5.43211 81.8434 1 9 273
1921361N05086 1921 73 NI BB NOT_NAMED 1921-12-28 09:00:00 TS 5.47865 81.1512 main 70 46 _________PP___ -1 5.49991 80.9299 TC 30 5.45738 81.3724 1 10 271
1921361N05086 1921 73 NI BB NOT_NAMED 1921-12-28 12:00:00 TS 5.48948 80.6451 main 44 44 _________OP___ -1 5.50000 80.4000 TC 30 5.47896 80.8903 1 11 272
1921361N05086 1921 73 NI BB NOT_NAMED 1921-12-28 15:00:00 TS 5.52506 80.0638 main 60 60 _________PO___ -1 5.55012 79.7276 TC 30 5.50000 80.4000 1 12 274
1921361N05086 1921 73 NI BB NOT_NAMED 1921-12-28 18:00:00 TS 5.56465 79.4630 main 94 94 _________OP___ -1 5.60000 79.1000 TC 30 5.52930 79.8260 1 11 273
1921361N05086 1921 73 NI BB NOT_NAMED 1921-12-28 21:00:00 TS 5.58264 78.9551 main 139 139 _________PP___ -1 5.60743 78.6525 TC 30 5.55786 79.2576 1 9 272
1921361N05086 1921 73 NI BB NOT_NAMED 1921-12-29 00:00:00 TS 5.59122 78.5802 main 179 179 _________OP___ -1 5.60000 78.4000 TC 30 5.58243 78.7604 1 6 272
1921361N05086 1921 73 NI BB NOT_NAMED 1921-12-29 03:00:00 TS 5.59998 78.3737 main 199 199 _________PO___ -1 5.59997 78.3475 TC 30 5.60000 78.4000 1 3 273
1921361N05086 1921 73 NI BB NOT_NAMED 1921-12-29 06:00:00 TS 5.60346 78.3281 main 210 210 _________OP___ -1 5.60000 78.4000 TC 30 5.60693 78.2563 1 0 274
1921361N05086 1921 73 NI BB NOT_NAMED 1921-12-29 09:00:00 TS 5.60361 78.3250 main 210 199 _________PP___ -1 5.60000 78.4000 TC 30 5.60723 78.2500 1 0 92
1921361N05086 1921 73 NI BB NOT_NAMED 1921-12-29 12:00:00 TS 5.60196 78.3594 main 199 199 _________OP___ -1 5.60000 78.4000 TC 30 5.60392 78.3188 1 1 93
1921361N05086 1921 73 NI BB NOT_NAMED 1921-12-29 15:00:00 TS 5.60000 78.4000 main 199 199 _________PO___ -1 5.60000 78.4000 TC 30 5.60000 78.4000 1 0 93
1921361N05086 1921 73 NI BB NOT_NAMED 1921-12-29 18:00:00 TS 5.60000 78.4000 main 199 199 _________OP___ -1 5.60000 78.4000 TC 30 5.60000 78.4000 1 0 0
1921361N05086 1921 73 NI BB NOT_NAMED 1921-12-29 21:00:00 TS 5.60000 78.4000 main 199 199 _________PP___ -1 5.60000 78.4000 TC 30 5.60000 78.4000 1 0 0
1921361N05086 1921 73 NI BB NOT_NAMED 1921-12-30 00:00:00 TS 5.60000 78.4000 main 199 199 _________OP___ -1 5.60000 78.4000 TC 30 5.60000 78.4000 1 0 0
1921361N05086 1921 73 NI BB NOT_NAMED 1921-12-30 03:00:00 TS 5.60000 78.4000 main 199 199 _________PO___ -1 5.60000 78.4000 TC 30 5.60000 78.4000 1 0 0
1921361N05086 1921 73 NI BB NOT_NAMED 1921-12-30 06:00:00 TS 5.60000 78.4000 main 199 199 _________OP___ -1 5.60000 78.4000 TC 30 5.60000 78.4000 1 0 0
1921361N05086 1921 73 NI BB NOT_NAMED 1921-12-30 09:00:00 TS 5.60000 78.4000 main 199 199 _________PP___ -1 5.60000 78.4000 TC 30 5.60000 78.4000 1 0 0
1921361N05086 1921 73 NI BB NOT_NAMED 1921-12-30 12:00:00 TS 5.60000 78.4000 main 199 199 _________OP___ -1 5.60000 78.4000 TC 30 5.60000 78.4000 1 0 0
1921361N05086 1921 73 NI BB NOT_NAMED 1921-12-30 15:00:00 TS 5.60000 78.4000 main 199 189 _________PO___ -1 5.60000 78.4000 TC 30 5.60000 78.4000 1 1 96
1921361N05086 1921 73 NI BB NOT_NAMED 1921-12-30 18:00:00 TS 5.58719 78.5195 main 189 168 _________OP___ -1 5.60000 78.4000 TC 30 5.57439 78.6389 1 3 96
1921361N05086 1921 73 NI BB NOT_NAMED 1921-12-30 21:00:00 TS 5.56866 78.7030 main 168 168 _________PP___ -1 5.58467 78.5649 TC 30 5.55265 78.8410 1 1 96
1921361N05086 1921 73 NI BB NOT_NAMED 1921-12-31 00:00:00 TS 5.57731 78.6113 main 179 179 _________OP___ -1 5.60000 78.4000 TC 30 5.55463 78.8227 1 7 275
1921361N05086 1921 73 NI AS NOT_NAMED 1921-12-31 03:00:00 TS 5.63479 77.9885 main 242 242 _________PO___ -1 5.66957 77.5769 TC 30 5.60000 78.4000 1 18 275
1921361N05086 1921 73 NI AS NOT_NAMED 1921-12-31 06:00:00 TS 5.72408 76.7675 main 274 274 _________OP___ -1 5.80000 76.2000 TC 30 5.64815 77.3349 1 29 274
1921361N05086 1921 73 NI AS NOT_NAMED 1921-12-31 09:00:00 TS 5.85086 75.1342 main 346 346 _________PP___ -1 5.95592 74.4022 TC 30 5.74580 75.8662 1 34 276
1921361N05086 1921 73 NI AS NOT_NAMED 1921-12-31 12:00:00 TS 6.06005 73.3448 main 472 472 _________OP___ -1 6.20000 72.5000 TC 30 5.92011 74.1897 1 34 279
1921361N05086 1921 73 NI AS NOT_NAMED 1921-12-31 15:00:00 TS 6.36583 71.7374 main 598 598 _________PO___ -1 6.53166 70.9748 TC 30 6.20000 72.5000 1 30 284
1921361N05086 1921 73 NI AS NOT_NAMED 1921-12-31 18:00:00 TS 6.77469 70.3711 main 712 712 _________OP___ -1 7.00000 69.6000 TC 30 6.60570 70.9495 1 29 289
1921361N05086 1921 73 NI AS NOT_NAMED 1921-12-31 21:00:00 TS 7.31297 69.0184 main 837 837 _________PP___ -1 7.61104 68.2510 TC 30 7.11426 69.5300 1 28 293
1921361N05086 1921 73 NI AS NOT_NAMED 1922-01-01 00:00:00 TS 7.89397 67.7634 main 931 931 _________OP___ -1 8.30000 66.9000 TC 30 7.69096 68.1950 1 23 295
1921361N05086 1921 73 NI AS NOT_NAMED 1922-01-01 03:00:00 NR 8.30000 66.9000 main 998 __________O___ -1 TC 8.30000 66.9000 1 19 295

IBTrACS Databaseについて

本データベースは、米国NOAAが公開する1842年以降の世界の熱帯低気圧のベストトラックデータアーカイブInternational Best Track Archive for Climate Stewardship (IBTrACS)を、ウェブで閲覧しやすい形式に変換したものです。

最終更新日:2021-12-06